< < Back
Terminal Aerodrome Forecast


Current Version              Previous Versions:   1  2  3  4  5  6  7  8  9  

Terminal Aerodrome Forecast

928
FTUS44 KBMX 291720
TAFANB
TAF
KANB 291720Z 2918/3018 17007KT P6SM SKC
     FM292200 17007KT P6SM BKN035
     FM300600 16006KT P6SM OVC015
     FM300900 20006KT 4SM -RA OVC005
     FM301300 22006KT 3SM RA VCTS OVC005CB=



Latest METAR

343
SAUS70 KWBC 291700 RRA
MTRANB
METAR KANB 291653Z AUTO 21006KT 10SM CLR 13/M09 A3036 RMK AO2 SLP285
T01331089


USA.gov is the U.S. government's official web portal to all federal, state and local government web resources and services.